sensor_id;sensor_type;location;lat;lon;timestamp;P1;durP1;ratioP1;P2;durP2;ratioP2
55993;SDS011;67425;52.126;20.638;2023-09-12T00:01:35;26.40;;;16.90;;
55993;SDS011;67425;52.126;20.638;2023-09-12T00:04:00;22.15;;;15.48;;
55993;SDS011;67425;52.126;20.638;2023-09-12T00:06:25;23.10;;;15.65;;
55993;SDS011;67425;52.126;20.638;2023-09-12T00:08:51;24.85;;;15.82;;
55993;SDS011;67425;52.126;20.638;2023-09-12T00:11:17;25.05;;;17.38;;
55993;SDS011;67425;52.126;20.638;2023-09-12T00:13:42;23.67;;;17.17;;
55993;SDS011;67425;52.126;20.638;2023-09-12T00:16:07;22.02;;;16.10;;
55993;SDS011;67425;52.126;20.638;2023-09-12T00:18:36;23.05;;;16.20;;
55993;SDS011;67425;52.126;20.638;2023-09-12T00:21:05;32.15;;;17.40;;
55993;SDS011;67425;52.126;20.638;2023-09-12T00:23:30;20.67;;;15.23;;
55993;SDS011;67425;52.126;20.638;2023-09-12T00:25:56;25.63;;;17.10;;
55993;SDS011;67425;52.126;20.638;2023-09-12T00:28:22;26.67;;;15.75;;
55993;SDS011;67425;52.126;20.638;2023-09-12T00:30:48;22.63;;;15.95;;
55993;SDS011;67425;52.126;20.638;2023-09-12T00:33:13;20.77;;;15.02;;
55993;SDS011;67425;52.126;20.638;2023-09-12T00:35:39;30.58;;;16.48;;
55993;SDS011;67425;52.126;20.638;2023-09-12T00:38:04;21.95;;;15.52;;
55993;SDS011;67425;52.126;20.638;2023-09-12T00:40:31;25.83;;;14.88;;
55993;SDS011;67425;52.126;20.638;2023-09-12T00:42:56;22.40;;;15.43;;
55993;SDS011;67425;52.126;20.638;2023-09-12T00:45:22;23.00;;;15.40;;
55993;SDS011;67425;52.126;20.638;2023-09-12T00:47:47;18.85;;;14.77;;
55993;SDS011;67425;52.126;20.638;2023-09-12T00:50:13;19.75;;;15.15;;
55993;SDS011;67425;52.126;20.638;2023-09-12T00:52:40;24.38;;;15.90;;
55993;SDS011;67425;52.126;20.638;2023-09-12T00:55:07;23.88;;;15.30;;
55993;SDS011;67425;52.126;20.638;2023-09-12T00:57:33;26.23;;;15.75;;
55993;SDS011;67425;52.126;20.638;2023-09-12T00:59:59;28.60;;;15.88;;
55993;SDS011;67425;52.126;20.638;2023-09-12T01:02:31;19.45;;;14.40;;
55993;SDS011;67425;52.126;20.638;2023-09-12T01:04:57;28.80;;;16.30;;
55993;SDS011;67425;52.126;20.638;2023-09-12T01:07:22;19.42;;;14.80;;
55993;SDS011;67425;52.126;20.638;2023-09-12T01:09:47;20.95;;;14.10;;
55993;SDS011;67425;52.126;20.638;2023-09-12T01:12:13;29.67;;;16.70;;
55993;SDS011;67425;52.126;20.638;2023-09-12T01:14:39;22.17;;;14.75;;
55993;SDS011;67425;52.126;20.638;2023-09-12T01:17:05;22.48;;;14.73;;
55993;SDS011;67425;52.126;20.638;2023-09-12T01:19:30;20.92;;;15.45;;
55993;SDS011;67425;52.126;20.638;2023-09-12T01:27:46;21.67;;;14.75;;
55993;SDS011;67425;52.126;20.638;2023-09-12T01:30:15;24.30;;;15.50;;
55993;SDS011;67425;52.126;20.638;2023-09-12T01:32:43;22.15;;;15.18;;
55993;SDS011;67425;52.126;20.638;2023-09-12T01:35:08;23.60;;;15.63;;
55993;SDS011;67425;52.126;20.638;2023-09-12T01:37:34;20.67;;;14.63;;
55993;SDS011;67425;52.126;20.638;2023-09-12T01:39:59;20.92;;;14.55;;
55993;SDS011;67425;52.126;20.638;2023-09-12T01:42:27;27.35;;;16.20;;
55993;SDS011;67425;52.126;20.638;2023-09-12T01:44:56;20.33;;;14.40;;
55993;SDS011;67425;52.126;20.638;2023-09-12T01:47:23;20.90;;;15.55;;
55993;SDS011;67425;52.126;20.638;2023-09-12T01:49:51;21.85;;;15.13;;
55993;SDS011;67425;52.126;20.638;2023-09-12T01:52:19;23.77;;;16.30;;
55993;SDS011;67425;52.126;20.638;2023-09-12T01:54:45;21.35;;;15.85;;
55993;SDS011;67425;52.126;20.638;2023-09-12T01:57:12;23.85;;;16.00;;
55993;SDS011;67425;52.126;20.638;2023-09-12T01:59:39;23.55;;;14.98;;
55993;SDS011;67425;52.126;20.638;2023-09-12T02:02:05;21.05;;;15.48;;
55993;SDS011;67425;52.126;20.638;2023-09-12T02:04:30;21.40;;;15.80;;
55993;SDS011;67425;52.126;20.638;2023-09-12T02:06:55;29.08;;;16.40;;
55993;SDS011;67425;52.126;20.638;2023-09-12T02:09:21;25.42;;;15.88;;
55993;SDS011;67425;52.126;20.638;2023-09-12T02:11:47;22.58;;;16.60;;
55993;SDS011;67425;52.126;20.638;2023-09-12T02:14:13;21.77;;;15.95;;
55993;SDS011;67425;52.126;20.638;2023-09-12T02:16:39;29.20;;;16.88;;
55993;SDS011;67425;52.126;20.638;2023-09-12T02:19:05;26.67;;;16.83;;
55993;SDS011;67425;52.126;20.638;2023-09-12T02:21:31;23.17;;;17.25;;
55993;SDS011;67425;52.126;20.638;2023-09-12T02:23:56;30.23;;;17.65;;
55993;SDS011;67425;52.126;20.638;2023-09-12T02:26:21;20.40;;;16.52;;
55993;SDS011;67425;52.126;20.638;2023-09-12T02:28:46;25.80;;;16.58;;
55993;SDS011;67425;52.126;20.638;2023-09-12T02:31:12;21.15;;;16.42;;
55993;SDS011;67425;52.126;20.638;2023-09-12T02:33:38;23.50;;;15.27;;
55993;SDS011;67425;52.126;20.638;2023-09-12T02:36:04;23.90;;;15.63;;
55993;SDS011;67425;52.126;20.638;2023-09-12T02:38:30;21.35;;;15.38;;
55993;SDS011;67425;52.126;20.638;2023-09-12T02:40:55;22.90;;;15.52;;
55993;SDS011;67425;52.126;20.638;2023-09-12T02:43:21;22.95;;;16.60;;
55993;SDS011;67425;52.126;20.638;2023-09-12T02:45:46;21.73;;;15.63;;
55993;SDS011;67425;52.126;20.638;2023-09-12T02:48:12;22.05;;;16.48;;
55993;SDS011;67425;52.126;20.638;2023-09-12T02:50:37;25.45;;;16.38;;
55993;SDS011;67425;52.126;20.638;2023-09-12T02:53:02;22.25;;;15.90;;
55993;SDS011;67425;52.126;20.638;2023-09-12T02:55:28;23.60;;;15.60;;
55993;SDS011;67425;52.126;20.638;2023-09-12T02:57:53;23.83;;;16.05;;
55993;SDS011;67425;52.126;20.638;2023-09-12T03:00:19;26.52;;;16.85;;
55993;SDS011;67425;52.126;20.638;2023-09-12T03:02:45;28.83;;;17.25;;
55993;SDS011;67425;52.126;20.638;2023-09-12T03:05:10;29.38;;;17.38;;
55993;SDS011;67425;52.126;20.638;2023-09-12T03:07:36;25.52;;;16.85;;
55993;SDS011;67425;52.126;20.638;2023-09-12T03:10:01;25.05;;;17.73;;
55993;SDS011;67425;52.126;20.638;2023-09-12T03:12:26;26.40;;;17.42;;
55993;SDS011;67425;52.126;20.638;2023-09-12T03:14:52;28.27;;;16.92;;
55993;SDS011;67425;52.126;20.638;2023-09-12T03:17:17;31.00;;;17.42;;
55993;SDS011;67425;52.126;20.638;2023-09-12T03:19:42;28.60;;;18.67;;
55993;SDS011;67425;52.126;20.638;2023-09-12T03:22:08;27.20;;;18.45;;
55993;SDS011;67425;52.126;20.638;2023-09-12T03:24:33;26.70;;;17.17;;
55993;SDS011;67425;52.126;20.638;2023-09-12T03:26:59;28.75;;;17.50;;
55993;SDS011;67425;52.126;20.638;2023-09-12T03:29:24;28.80;;;17.00;;
55993;SDS011;67425;52.126;20.638;2023-09-12T03:31:49;24.80;;;16.52;;
55993;SDS011;67425;52.126;20.638;2023-09-12T03:34:15;29.90;;;17.35;;
55993;SDS011;67425;52.126;20.638;2023-09-12T03:36:40;22.85;;;16.23;;
55993;SDS011;67425;52.126;20.638;2023-09-12T03:39:05;21.45;;;16.20;;
55993;SDS011;67425;52.126;20.638;2023-09-12T03:41:33;26.88;;;17.27;;
55993;SDS011;67425;52.126;20.638;2023-09-12T03:44:01;23.58;;;15.82;;
55993;SDS011;67425;52.126;20.638;2023-09-12T03:46:27;27.05;;;17.38;;
55993;SDS011;67425;52.126;20.638;2023-09-12T03:48:52;30.52;;;17.40;;
55993;SDS011;67425;52.126;20.638;2023-09-12T03:51:18;23.52;;;16.98;;
55993;SDS011;67425;52.126;20.638;2023-09-12T03:53:43;25.10;;;16.65;;
55993;SDS011;67425;52.126;20.638;2023-09-12T03:56:08;26.58;;;17.42;;
55993;SDS011;67425;52.126;20.638;2023-09-12T03:58:37;25.90;;;15.82;;
55993;SDS011;67425;52.126;20.638;2023-09-12T04:01:03;27.33;;;17.25;;
55993;SDS011;67425;52.126;20.638;2023-09-12T04:03:28;25.75;;;17.02;;
55993;SDS011;67425;52.126;20.638;2023-09-12T04:05:53;26.48;;;18.20;;
55993;SDS011;67425;52.126;20.638;2023-09-12T04:08:18;23.27;;;15.95;;
55993;SDS011;67425;52.126;20.638;2023-09-12T04:10:44;22.05;;;16.98;;
55993;SDS011;67425;52.126;20.638;2023-09-12T04:13:09;23.77;;;16.30;;
55993;SDS011;67425;52.126;20.638;2023-09-12T04:15:35;23.77;;;16.92;;
55993;SDS011;67425;52.126;20.638;2023-09-12T04:18:00;23.55;;;16.10;;
55993;SDS011;67425;52.126;20.638;2023-09-12T04:20:26;20.98;;;15.93;;
55993;SDS011;67425;52.126;20.638;2023-09-12T04:22:51;23.60;;;15.90;;
55993;SDS011;67425;52.126;20.638;2023-09-12T04:25:16;22.10;;;15.23;;
55993;SDS011;67425;52.126;20.638;2023-09-12T04:27:41;25.90;;;16.42;;
55993;SDS011;67425;52.126;20.638;2023-09-12T04:30:07;28.83;;;16.67;;
55993;SDS011;67425;52.126;20.638;2023-09-12T04:32:33;26.10;;;15.32;;
55993;SDS011;67425;52.126;20.638;2023-09-12T04:34:59;29.92;;;16.75;;
55993;SDS011;67425;52.126;20.638;2023-09-12T04:37:25;23.10;;;15.43;;
55993;SDS011;67425;52.126;20.638;2023-09-12T04:39:50;26.85;;;16.00;;
55993;SDS011;67425;52.126;20.638;2023-09-12T04:42:15;29.70;;;15.85;;
55993;SDS011;67425;52.126;20.638;2023-09-12T04:44:41;25.48;;;16.50;;
55993;SDS011;67425;52.126;20.638;2023-09-12T04:47:07;37.80;;;16.90;;
55993;SDS011;67425;52.126;20.638;2023-09-12T04:49:33;22.60;;;16.88;;
55993;SDS011;67425;52.126;20.638;2023-09-12T04:51:58;25.75;;;16.05;;
55993;SDS011;67425;52.126;20.638;2023-09-12T04:54:24;21.83;;;16.42;;
55993;SDS011;67425;52.126;20.638;2023-09-12T04:56:49;27.55;;;17.95;;
55993;SDS011;67425;52.126;20.638;2023-09-12T04:59:14;25.52;;;17.27;;
55993;SDS011;67425;52.126;20.638;2023-09-12T05:01:40;27.88;;;17.65;;
55993;SDS011;67425;52.126;20.638;2023-09-12T05:04:05;32.22;;;17.15;;
55993;SDS011;67425;52.126;20.638;2023-09-12T05:06:31;26.52;;;17.42;;
55993;SDS011;67425;52.126;20.638;2023-09-12T05:08:56;25.58;;;17.38;;
55993;SDS011;67425;52.126;20.638;2023-09-12T05:11:22;30.55;;;16.60;;
55993;SDS011;67425;52.126;20.638;2023-09-12T05:13:48;27.58;;;17.55;;
55993;SDS011;67425;52.126;20.638;2023-09-12T05:16:14;23.40;;;16.38;;
55993;SDS011;67425;52.126;20.638;2023-09-12T05:18:39;28.77;;;15.63;;
55993;SDS011;67425;52.126;20.638;2023-09-12T05:21:04;26.05;;;16.48;;
55993;SDS011;67425;52.126;20.638;2023-09-12T05:23:30;22.85;;;16.88;;
55993;SDS011;67425;52.126;20.638;2023-09-12T05:25:56;24.95;;;17.42;;
55993;SDS011;67425;52.126;20.638;2023-09-12T05:28:21;22.80;;;17.33;;
55993;SDS011;67425;52.126;20.638;2023-09-12T05:30:46;25.70;;;18.08;;
55993;SDS011;67425;52.126;20.638;2023-09-12T05:33:12;28.77;;;18.88;;
55993;SDS011;67425;52.126;20.638;2023-09-12T05:35:37;25.35;;;16.52;;
55993;SDS011;67425;52.126;20.638;2023-09-12T05:38:03;26.17;;;17.95;;
55993;SDS011;67425;52.126;20.638;2023-09-12T05:40:28;32.50;;;17.92;;
55993;SDS011;67425;52.126;20.638;2023-09-12T05:42:54;33.13;;;18.98;;
55993;SDS011;67425;52.126;20.638;2023-09-12T05:45:19;33.38;;;19.15;;
55993;SDS011;67425;52.126;20.638;2023-09-12T05:47:44;28.02;;;18.38;;
55993;SDS011;67425;52.126;20.638;2023-09-12T05:50:10;25.02;;;18.40;;
55993;SDS011;67425;52.126;20.638;2023-09-12T05:52:36;24.83;;;17.45;;
55993;SDS011;67425;52.126;20.638;2023-09-12T05:55:02;28.02;;;16.67;;
55993;SDS011;67425;52.126;20.638;2023-09-12T05:57:29;24.48;;;17.45;;
55993;SDS011;67425;52.126;20.638;2023-09-12T05:59:58;32.00;;;17.65;;
55993;SDS011;67425;52.126;20.638;2023-09-12T06:02:24;33.85;;;17.60;;
55993;SDS011;67425;52.126;20.638;2023-09-12T06:04:50;26.38;;;17.92;;
55993;SDS011;67425;52.126;20.638;2023-09-12T06:07:15;24.02;;;17.27;;
55993;SDS011;67425;52.126;20.638;2023-09-12T06:09:40;24.98;;;18.30;;
55993;SDS011;67425;52.126;20.638;2023-09-12T06:12:06;29.95;;;17.73;;
55993;SDS011;67425;52.126;20.638;2023-09-12T06:14:31;28.10;;;17.42;;
55993;SDS011;67425;52.126;20.638;2023-09-12T06:16:57;35.70;;;17.95;;
55993;SDS011;67425;52.126;20.638;2023-09-12T06:19:22;31.05;;;17.17;;
55993;SDS011;67425;52.126;20.638;2023-09-12T06:21:47;39.88;;;17.40;;
55993;SDS011;67425;52.126;20.638;2023-09-12T06:24:16;36.28;;;18.15;;
55993;SDS011;67425;52.126;20.638;2023-09-12T06:26:44;25.17;;;16.42;;
55993;SDS011;67425;52.126;20.638;2023-09-12T06:29:09;34.47;;;17.00;;
55993;SDS011;67425;52.126;20.638;2023-09-12T06:31:35;29.42;;;16.02;;
55993;SDS011;67425;52.126;20.638;2023-09-12T06:34:01;30.60;;;15.80;;
55993;SDS011;67425;52.126;20.638;2023-09-12T06:36:27;36.50;;;15.82;;
55993;SDS011;67425;52.126;20.638;2023-09-12T06:38:54;33.58;;;15.30;;
55993;SDS011;67425;52.126;20.638;2023-09-12T06:41:20;22.33;;;15.93;;
55993;SDS011;67425;52.126;20.638;2023-09-12T06:43:46;25.58;;;15.32;;
55993;SDS011;67425;52.126;20.638;2023-09-12T06:46:11;22.70;;;14.65;;
55993;SDS011;67425;52.126;20.638;2023-09-12T06:48:37;23.77;;;16.10;;
55993;SDS011;67425;52.126;20.638;2023-09-12T06:51:06;28.17;;;15.38;;
55993;SDS011;67425;52.126;20.638;2023-09-12T06:53:33;22.02;;;16.05;;
55993;SDS011;67425;52.126;20.638;2023-09-12T06:55:59;25.25;;;14.45;;
55993;SDS011;67425;52.126;20.638;2023-09-12T06:58:24;23.38;;;15.20;;
55993;SDS011;67425;52.126;20.638;2023-09-12T07:00:50;24.15;;;14.93;;
55993;SDS011;67425;52.126;20.638;2023-09-12T07:03:15;26.50;;;15.18;;
55993;SDS011;67425;52.126;20.638;2023-09-12T07:05:41;27.65;;;13.70;;
55993;SDS011;67425;52.126;20.638;2023-09-12T07:08:07;23.45;;;13.55;;
55993;SDS011;67425;52.126;20.638;2023-09-12T07:10:33;30.40;;;13.27;;
55993;SDS011;67425;52.126;20.638;2023-09-12T07:12:59;31.23;;;14.98;;
55993;SDS011;67425;52.126;20.638;2023-09-12T07:15:24;27.15;;;13.60;;
55993;SDS011;67425;52.126;20.638;2023-09-12T07:17:49;20.80;;;13.77;;
55993;SDS011;67425;52.126;20.638;2023-09-12T07:20:15;26.27;;;12.95;;
55993;SDS011;67425;52.126;20.638;2023-09-12T07:22:42;25.10;;;14.60;;
55993;SDS011;67425;52.126;20.638;2023-09-12T07:25:08;31.17;;;13.85;;
55993;SDS011;67425;52.126;20.638;2023-09-12T07:27:36;24.52;;;14.43;;
55993;SDS011;67425;52.126;20.638;2023-09-12T07:30:02;18.65;;;13.20;;
55993;SDS011;67425;52.126;20.638;2023-09-12T07:32:28;15.75;;;12.75;;
55993;SDS011;67425;52.126;20.638;2023-09-12T07:34:54;18.77;;;12.10;;
55993;SDS011;67425;52.126;20.638;2023-09-12T07:37:19;18.67;;;11.60;;
55993;SDS011;67425;52.126;20.638;2023-09-12T07:39:45;18.75;;;12.35;;
55993;SDS011;67425;52.126;20.638;2023-09-12T07:42:10;20.55;;;12.23;;
55993;SDS011;67425;52.126;20.638;2023-09-12T07:44:35;30.95;;;12.25;;
55993;SDS011;67425;52.126;20.638;2023-09-12T07:47:01;24.70;;;11.52;;
55993;SDS011;67425;52.126;20.638;2023-09-12T07:49:26;16.98;;;11.15;;
55993;SDS011;67425;52.126;20.638;2023-09-12T07:51:51;17.93;;;11.50;;
55993;SDS011;67425;52.126;20.638;2023-09-12T07:54:17;22.45;;;11.07;;
55993;SDS011;67425;52.126;20.638;2023-09-12T07:56:43;14.05;;;11.13;;
55993;SDS011;67425;52.126;20.638;2023-09-12T07:59:08;15.18;;;10.60;;
55993;SDS011;67425;52.126;20.638;2023-09-12T08:01:35;18.38;;;11.07;;
55993;SDS011;67425;52.126;20.638;2023-09-12T08:04:00;14.20;;;10.70;;
55993;SDS011;67425;52.126;20.638;2023-09-12T08:06:25;18.92;;;11.50;;
55993;SDS011;67425;52.126;20.638;2023-09-12T08:08:51;14.27;;;11.27;;
55993;SDS011;67425;52.126;20.638;2023-09-12T08:11:17;15.27;;;9.18;;
55993;SDS011;67425;52.126;20.638;2023-09-12T08:13:42;13.15;;;10.07;;
55993;SDS011;67425;52.126;20.638;2023-09-12T08:16:07;21.25;;;12.77;;
55993;SDS011;67425;52.126;20.638;2023-09-12T08:18:33;13.60;;;10.18;;
55993;SDS011;67425;52.126;20.638;2023-09-12T08:20:58;18.63;;;10.68;;
55993;SDS011;67425;52.126;20.638;2023-09-12T08:23:23;15.45;;;10.43;;
55993;SDS011;67425;52.126;20.638;2023-09-12T08:25:49;17.35;;;10.68;;
55993;SDS011;67425;52.126;20.638;2023-09-12T08:28:14;16.85;;;10.52;;
55993;SDS011;67425;52.126;20.638;2023-09-12T08:30:40;17.70;;;11.52;;
55993;SDS011;67425;52.126;20.638;2023-09-12T08:33:05;18.95;;;10.07;;
55993;SDS011;67425;52.126;20.638;2023-09-12T08:35:32;22.25;;;11.23;;
55993;SDS011;67425;52.126;20.638;2023-09-12T08:37:57;17.95;;;10.85;;
55993;SDS011;67425;52.126;20.638;2023-09-12T08:40:23;11.82;;;10.63;;
55993;SDS011;67425;52.126;20.638;2023-09-12T08:42:48;21.20;;;11.30;;
55993;SDS011;67425;52.126;20.638;2023-09-12T08:45:17;19.83;;;10.55;;
55993;SDS011;67425;52.126;20.638;2023-09-12T08:47:44;17.75;;;10.77;;
55993;SDS011;67425;52.126;20.638;2023-09-12T08:50:12;15.25;;;10.25;;
55993;SDS011;67425;52.126;20.638;2023-09-12T08:52:39;19.20;;;9.95;;
55993;SDS011;67425;52.126;20.638;2023-09-12T08:55:06;40.72;;;11.65;;
55993;SDS011;67425;52.126;20.638;2023-09-12T08:57:33;15.75;;;10.38;;
55993;SDS011;67425;52.126;20.638;2023-09-12T09:00:00;17.20;;;11.43;;
55993;SDS011;67425;52.126;20.638;2023-09-12T09:02:31;19.35;;;10.68;;
55993;SDS011;67425;52.126;20.638;2023-09-12T09:04:58;12.10;;;10.27;;
55993;SDS011;67425;52.126;20.638;2023-09-12T09:07:25;19.58;;;10.00;;
55993;SDS011;67425;52.126;20.638;2023-09-12T09:09:53;13.50;;;9.80;;
55993;SDS011;67425;52.126;20.638;2023-09-12T09:12:19;14.68;;;9.50;;
55993;SDS011;67425;52.126;20.638;2023-09-12T09:14:44;18.88;;;9.93;;
55993;SDS011;67425;52.126;20.638;2023-09-12T09:17:10;22.50;;;10.63;;
55993;SDS011;67425;52.126;20.638;2023-09-12T09:19:44;31.67;;;10.45;;
55993;SDS011;67425;52.126;20.638;2023-09-12T09:22:10;24.80;;;15.55;;
55993;SDS011;67425;52.126;20.638;2023-09-12T09:24:36;20.73;;;10.27;;
55993;SDS011;67425;52.126;20.638;2023-09-12T09:27:01;18.45;;;9.13;;
55993;SDS011;67425;52.126;20.638;2023-09-12T09:29:27;25.52;;;9.52;;
55993;SDS011;67425;52.126;20.638;2023-09-12T09:31:57;16.50;;;8.95;;
55993;SDS011;67425;52.126;20.638;2023-09-12T09:34:24;16.35;;;9.43;;
55993;SDS011;67425;52.126;20.638;2023-09-12T09:36:50;16.85;;;8.65;;
55993;SDS011;67425;52.126;20.638;2023-09-12T09:39:17;12.75;;;8.80;;
55993;SDS011;67425;52.126;20.638;2023-09-12T09:41:46;13.75;;;9.40;;
55993;SDS011;67425;52.126;20.638;2023-09-12T09:44:15;23.75;;;8.95;;
55993;SDS011;67425;52.126;20.638;2023-09-12T09:46:44;15.23;;;8.70;;
55993;SDS011;67425;52.126;20.638;2023-09-12T09:49:11;9.98;;;8.38;;
55993;SDS011;67425;52.126;20.638;2023-09-12T09:51:42;16.48;;;9.52;;
55993;SDS011;67425;52.126;20.638;2023-09-12T09:54:08;17.40;;;9.70;;
55993;SDS011;67425;52.126;20.638;2023-09-12T09:56:39;24.23;;;9.90;;
55993;SDS011;67425;52.126;20.638;2023-09-12T09:59:11;17.45;;;9.40;;
55993;SDS011;67425;52.126;20.638;2023-09-12T10:01:40;10.15;;;8.82;;
55993;SDS011;67425;52.126;20.638;2023-09-12T10:04:06;11.65;;;8.77;;
55993;SDS011;67425;52.126;20.638;2023-09-12T10:06:32;9.35;;;8.45;;
55993;SDS011;67425;52.126;20.638;2023-09-12T10:09:01;9.68;;;8.43;;
55993;SDS011;67425;52.126;20.638;2023-09-12T10:11:35;14.55;;;8.77;;
55993;SDS011;67425;52.126;20.638;2023-09-12T10:14:03;12.02;;;8.30;;
55993;SDS011;67425;52.126;20.638;2023-09-12T10:16:31;19.20;;;8.93;;
55993;SDS011;67425;52.126;20.638;2023-09-12T10:19:08;16.25;;;8.60;;
55993;SDS011;67425;52.126;20.638;2023-09-12T10:21:46;11.93;;;8.60;;
55993;SDS011;67425;52.126;20.638;2023-09-12T10:24:14;14.93;;;8.75;;
55993;SDS011;67425;52.126;20.638;2023-09-12T10:26:41;10.40;;;7.32;;
55993;SDS011;67425;52.126;20.638;2023-09-12T10:29:12;14.88;;;8.48;;
55993;SDS011;67425;52.126;20.638;2023-09-12T10:31:39;17.02;;;8.90;;
55993;SDS011;67425;52.126;20.638;2023-09-12T10:34:04;12.57;;;8.63;;
55993;SDS011;67425;52.126;20.638;2023-09-12T10:36:34;18.80;;;8.75;;
55993;SDS011;67425;52.126;20.638;2023-09-12T10:39:03;13.10;;;7.93;;
55993;SDS011;67425;52.126;20.638;2023-09-12T10:41:30;18.88;;;8.75;;
55993;SDS011;67425;52.126;20.638;2023-09-12T10:43:55;16.75;;;8.93;;
55993;SDS011;67425;52.126;20.638;2023-09-12T10:46:23;21.63;;;9.40;;
55993;SDS011;67425;52.126;20.638;2023-09-12T10:48:48;15.60;;;7.95;;
55993;SDS011;67425;52.126;20.638;2023-09-12T10:51:15;10.18;;;8.25;;
55993;SDS011;67425;52.126;20.638;2023-09-12T10:53:45;15.85;;;8.70;;
55993;SDS011;67425;52.126;20.638;2023-09-12T10:56:16;10.35;;;8.13;;
55993;SDS011;67425;52.126;20.638;2023-09-12T11:01:29;12.55;;;7.85;;
55993;SDS011;67425;52.126;20.638;2023-09-12T11:03:55;13.13;;;8.38;;
55993;SDS011;67425;52.126;20.638;2023-09-12T11:06:22;10.25;;;8.70;;
55993;SDS011;67425;52.126;20.638;2023-09-12T11:11:47;22.10;;;9.07;;
55993;SDS011;67425;52.126;20.638;2023-09-12T11:14:15;9.07;;;7.68;;
55993;SDS011;67425;52.126;20.638;2023-09-12T11:16:42;17.35;;;8.38;;
55993;SDS011;67425;52.126;20.638;2023-09-12T11:19:20;10.32;;;8.32;;
55993;SDS011;67425;52.126;20.638;2023-09-12T11:21:49;11.00;;;8.02;;
55993;SDS011;67425;52.126;20.638;2023-09-12T11:24:16;8.27;;;7.47;;
55993;SDS011;67425;52.126;20.638;2023-09-12T11:27:02;12.98;;;8.25;;
55993;SDS011;67425;52.126;20.638;2023-09-12T11:29:36;9.27;;;8.38;;
55993;SDS011;67425;52.126;20.638;2023-09-12T11:32:04;14.15;;;7.72;;
55993;SDS011;67425;52.126;20.638;2023-09-12T11:34:36;12.25;;;8.18;;
55993;SDS011;67425;52.126;20.638;2023-09-12T11:37:08;11.25;;;8.05;;
55993;SDS011;67425;52.126;20.638;2023-09-12T11:39:34;10.98;;;8.77;;
55993;SDS011;67425;52.126;20.638;2023-09-12T11:42:02;9.50;;;8.50;;
55993;SDS011;67425;52.126;20.638;2023-09-12T11:44:29;16.02;;;8.43;;
55993;SDS011;67425;52.126;20.638;2023-09-12T11:47:01;15.63;;;7.95;;
55993;SDS011;67425;52.126;20.638;2023-09-12T11:49:37;10.80;;;8.45;;
55993;SDS011;67425;52.126;20.638;2023-09-12T11:52:07;10.48;;;8.63;;
55993;SDS011;67425;52.126;20.638;2023-09-12T11:54:34;9.68;;;8.68;;
55993;SDS011;67425;52.126;20.638;2023-09-12T11:56:59;12.93;;;8.50;;
55993;SDS011;67425;52.126;20.638;2023-09-12T11:59:27;13.68;;;8.60;;
55993;SDS011;67425;52.126;20.638;2023-09-12T12:01:56;14.50;;;8.02;;
55993;SDS011;67425;52.126;20.638;2023-09-12T12:04:22;12.32;;;8.13;;
55993;SDS011;67425;52.126;20.638;2023-09-12T12:06:50;18.08;;;8.30;;
55993;SDS011;67425;52.126;20.638;2023-09-12T12:09:16;14.10;;;8.63;;
55993;SDS011;67425;52.126;20.638;2023-09-12T12:11:44;17.02;;;8.27;;
55993;SDS011;67425;52.126;20.638;2023-09-12T12:14:11;16.92;;;8.27;;
55993;SDS011;67425;52.126;20.638;2023-09-12T12:16:44;8.40;;;7.45;;
55993;SDS011;67425;52.126;20.638;2023-09-12T12:19:10;11.48;;;8.25;;
55993;SDS011;67425;52.126;20.638;2023-09-12T12:21:37;15.23;;;8.50;;
55993;SDS011;67425;52.126;20.638;2023-09-12T12:24:05;10.70;;;8.25;;
55993;SDS011;67425;52.126;20.638;2023-09-12T12:26:32;14.95;;;8.02;;
55993;SDS011;67425;52.126;20.638;2023-09-12T12:29:02;10.95;;;8.00;;
55993;SDS011;67425;52.126;20.638;2023-09-12T12:31:29;11.48;;;8.00;;
55993;SDS011;67425;52.126;20.638;2023-09-12T12:33:55;8.82;;;7.90;;
55993;SDS011;67425;52.126;20.638;2023-09-12T12:36:22;9.95;;;8.32;;
55993;SDS011;67425;52.126;20.638;2023-09-12T12:38:48;9.68;;;8.13;;
55993;SDS011;67425;52.126;20.638;2023-09-12T12:41:27;11.40;;;8.57;;
55993;SDS011;67425;52.126;20.638;2023-09-12T12:43:56;9.65;;;8.70;;
55993;SDS011;67425;52.126;20.638;2023-09-12T12:46:25;9.52;;;8.45;;
55993;SDS011;67425;52.126;20.638;2023-09-12T12:48:51;21.70;;;9.55;;
55993;SDS011;67425;52.126;20.638;2023-09-12T12:53:50;16.88;;;8.55;;
55993;SDS011;67425;52.126;20.638;2023-09-12T12:56:16;11.32;;;7.97;;
55993;SDS011;67425;52.126;20.638;2023-09-12T12:58:50;27.73;;;8.60;;
55993;SDS011;67425;52.126;20.638;2023-09-12T13:01:17;12.25;;;8.52;;
55993;SDS011;67425;52.126;20.638;2023-09-12T13:03:43;16.55;;;8.50;;
55993;SDS011;67425;52.126;20.638;2023-09-12T13:06:09;19.02;;;8.13;;
55993;SDS011;67425;52.126;20.638;2023-09-12T13:08:42;13.27;;;8.13;;
55993;SDS011;67425;52.126;20.638;2023-09-12T13:11:09;11.65;;;9.20;;
55993;SDS011;67425;52.126;20.638;2023-09-12T13:13:36;12.27;;;8.90;;
55993;SDS011;67425;52.126;20.638;2023-09-12T13:16:03;14.65;;;7.85;;
55993;SDS011;67425;52.126;20.638;2023-09-12T13:18:34;13.63;;;7.97;;
55993;SDS011;67425;52.126;20.638;2023-09-12T13:21:00;11.13;;;8.07;;
55993;SDS011;67425;52.126;20.638;2023-09-12T13:23:26;9.20;;;8.25;;
55993;SDS011;67425;52.126;20.638;2023-09-12T13:25:52;11.93;;;8.63;;
55993;SDS011;67425;52.126;20.638;2023-09-12T13:28:18;16.35;;;8.48;;
55993;SDS011;67425;52.126;20.638;2023-09-12T13:30:44;15.93;;;9.18;;
55993;SDS011;67425;52.126;20.638;2023-09-12T13:33:10;9.73;;;8.35;;
55993;SDS011;67425;52.126;20.638;2023-09-12T13:35:36;15.63;;;8.10;;
55993;SDS011;67425;52.126;20.638;2023-09-12T13:38:01;20.58;;;8.80;;
55993;SDS011;67425;52.126;20.638;2023-09-12T13:40:28;10.70;;;8.15;;
55993;SDS011;67425;52.126;20.638;2023-09-12T13:42:54;9.95;;;7.97;;
55993;SDS011;67425;52.126;20.638;2023-09-12T13:45:19;12.65;;;8.00;;
55993;SDS011;67425;52.126;20.638;2023-09-12T13:47:44;11.88;;;7.63;;
55993;SDS011;67425;52.126;20.638;2023-09-12T13:50:10;11.65;;;7.55;;
55993;SDS011;67425;52.126;20.638;2023-09-12T13:52:35;9.27;;;7.38;;
55993;SDS011;67425;52.126;20.638;2023-09-12T13:55:01;8.57;;;7.67;;
55993;SDS011;67425;52.126;20.638;2023-09-12T13:57:28;10.38;;;8.02;;
55993;SDS011;67425;52.126;20.638;2023-09-12T13:59:54;10.15;;;8.05;;
55993;SDS011;67425;52.126;20.638;2023-09-12T14:02:19;8.32;;;7.47;;
55993;SDS011;67425;52.126;20.638;2023-09-12T14:04:44;9.63;;;8.18;;
55993;SDS011;67425;52.126;20.638;2023-09-12T14:07:10;9.73;;;8.15;;
55993;SDS011;67425;52.126;20.638;2023-09-12T14:09:35;8.43;;;7.63;;
55993;SDS011;67425;52.126;20.638;2023-09-12T14:12:00;10.10;;;8.20;;
55993;SDS011;67425;52.126;20.638;2023-09-12T14:14:26;18.53;;;8.70;;
55993;SDS011;67425;52.126;20.638;2023-09-12T14:16:51;15.30;;;9.18;;
55993;SDS011;67425;52.126;20.638;2023-09-12T14:19:16;12.50;;;8.20;;
55993;SDS011;67425;52.126;20.638;2023-09-12T14:21:42;8.77;;;7.82;;
55993;SDS011;67425;52.126;20.638;2023-09-12T14:24:09;10.50;;;8.70;;